createdAt,value
2019-04-23T00:00:23.951Z,14.77
2019-04-23T00:02:56.651Z,17.10
2019-04-23T00:05:36.476Z,16.23
2019-04-23T00:08:07.489Z,18.15
2019-04-23T00:10:30.401Z,16.90
2019-04-23T00:13:13.002Z,17.93
2019-04-23T00:15:33.846Z,17.90
2019-04-23T00:18:04.161Z,15.88
2019-04-23T00:20:34.311Z,17.10
2019-04-23T00:23:06.415Z,17.65
2019-04-23T00:26:09.218Z,16.20
2019-04-23T00:28:29.807Z,15.13
2019-04-23T00:30:54.981Z,15.08
2019-04-23T00:33:25.627Z,16.05
2019-04-23T00:35:55.316Z,17.82
2019-04-23T00:40:58.122Z,16.27
2019-04-23T00:43:27.011Z,15.73
2019-04-23T00:45:55.204Z,18.37
2019-04-23T00:48:35.051Z,16.27
2019-04-23T00:50:54.240Z,19.30
2019-04-23T00:53:30.003Z,19.37
2019-04-23T01:00:57.869Z,18.90
2019-04-23T01:03:25.430Z,21.50
2019-04-23T01:06:02.746Z,17.53
2019-04-23T01:08:29.715Z,18.93
2019-04-23T01:11:06.318Z,20.47
2019-04-23T01:13:39.536Z,19.83
2019-04-23T01:16:05.414Z,22.07
2019-04-23T01:18:49.077Z,21.60
2019-04-23T01:21:05.618Z,17.57
2019-04-23T01:23:44.605Z,18.60
2019-04-23T01:26:24.039Z,19.40
2019-04-23T01:29:03.348Z,21.93
2019-04-23T01:31:39.384Z,20.43
2019-04-23T01:34:06.108Z,19.87
2019-04-23T01:36:33.258Z,20.97
2019-04-23T01:39:08.515Z,19.40
2019-04-23T01:41:38.448Z,20.37
2019-04-23T01:44:07.472Z,17.30
2019-04-23T01:46:41.988Z,23.27
2019-04-23T01:49:07.087Z,18.53
2019-04-23T01:51:40.812Z,18.33
2019-04-23T01:54:06.974Z,19.87
2019-04-23T01:56:36.880Z,20.90
2019-04-23T01:59:11.184Z,20.17
2019-04-23T02:01:39.886Z,21.45
2019-04-23T02:06:38.679Z,19.50
2019-04-23T02:09:25.062Z,19.73
2019-04-23T02:11:42.190Z,21.12
2019-04-23T02:19:16.799Z,19.97
2019-04-23T02:21:59.889Z,22.73
2019-04-23T02:24:17.746Z,21.60
2019-04-23T02:26:50.775Z,19.93
2019-04-23T02:29:28.669Z,24.13
2019-04-23T02:31:57.736Z,20.25
2019-04-23T02:34:33.361Z,21.77
2019-04-23T02:36:57.335Z,21.43
2019-04-23T02:39:29.157Z,18.60
2019-04-23T02:46:59.338Z,21.10
2019-04-23T02:49:36.168Z,19.97
2019-04-23T02:51:59.407Z,18.57
2019-04-23T02:54:37.536Z,19.10
2019-04-23T02:57:05.762Z,18.37
2019-04-23T02:59:57.788Z,24.13
2019-04-23T03:02:05.868Z,18.17
2019-04-23T03:04:35.058Z,17.23
2019-04-23T03:07:03.231Z,19.07
2019-04-23T03:09:44.929Z,19.63
2019-04-23T03:14:33.402Z,18.73
2019-04-23T03:19:37.927Z,17.77
2019-04-23T03:27:33.751Z,16.07
2019-04-23T03:33:37.738Z,16.97
2019-04-23T03:37:39.958Z,18.57
2019-04-23T03:40:07.939Z,20.60
2019-04-23T03:42:42.431Z,20.60
2019-04-23T03:45:16.653Z,20.17
2019-04-23T03:47:40.015Z,19.90
2019-04-23T03:50:14.940Z,18.57
2019-04-23T03:55:11.724Z,19.07
2019-04-23T04:02:48.730Z,17.52
2019-04-23T04:05:12.918Z,18.33
2019-04-23T04:07:52.785Z,19.23
2019-04-23T04:10:06.739Z,22.77
2019-04-23T04:17:50.248Z,19.30
2019-04-23T04:25:37.470Z,21.07
2019-04-23T04:27:53.799Z,18.37
2019-04-23T04:30:21.874Z,20.33
2019-04-23T04:32:59.094Z,17.20
2019-04-23T04:37:52.789Z,19.07
2019-04-23T04:40:39.789Z,17.75
2019-04-23T04:43:13.850Z,18.03
2019-04-23T04:45:47.305Z,21.10
2019-04-23T04:50:26.420Z,20.07
2019-04-23T04:55:33.894Z,18.77
2019-04-23T04:58:12.335Z,23.23
2019-04-23T05:00:59.629Z,19.93
2019-04-23T05:03:12.680Z,19.97
2019-04-23T05:05:51.084Z,26.60
2019-04-23T05:07:55.726Z,21.75
2019-04-23T05:13:12.053Z,24.67
2019-04-23T05:15:25.478Z,24.37
2019-04-23T05:18:24.025Z,26.52
2019-04-23T05:23:23.143Z,25.17
2019-04-23T05:25:44.971Z,19.77
2019-04-23T05:28:29.924Z,18.43
2019-04-23T05:33:18.862Z,20.08
2019-04-23T05:36:06.074Z,18.60
2019-04-23T05:38:31.482Z,19.73
2019-04-23T05:43:19.290Z,22.57
2019-04-23T05:45:46.767Z,19.23
2019-04-23T05:48:20.093Z,17.70
2019-04-23T05:53:18.444Z,19.30
2019-04-23T05:55:55.371Z,17.70
2019-04-23T05:58:22.791Z,16.42
2019-04-23T06:00:59.922Z,18.17
2019-04-23T06:03:22.896Z,17.92
2019-04-23T06:05:54.270Z,14.63
2019-04-23T06:08:41.007Z,16.20
2019-04-23T06:10:59.852Z,16.17
2019-04-23T06:13:26.922Z,16.40
2019-04-23T06:15:55.870Z,17.87
2019-04-23T06:18:37.142Z,14.80
2019-04-23T06:23:36.590Z,16.23
2019-04-23T06:26:21.158Z,15.13
2019-04-23T06:28:27.098Z,18.02
2019-04-23T06:31:02.385Z,18.02
2019-04-23T06:33:34.106Z,15.93
2019-04-23T06:36:09.828Z,19.37
2019-04-23T06:38:41.034Z,13.98
2019-04-23T06:41:06.279Z,15.80
2019-04-23T06:43:33.146Z,16.37
2019-04-23T06:46:07.200Z,19.50
2019-04-23T06:48:38.551Z,18.15
2019-04-23T06:51:12.842Z,15.75
2019-04-23T06:53:29.216Z,25.35
2019-04-23T06:58:37.450Z,16.75
2019-04-23T07:01:08.331Z,16.10
2019-04-23T07:16:11.439Z,14.95
2019-04-23T07:18:41.558Z,14.83
2019-04-23T07:23:53.616Z,18.04
2019-04-23T07:26:26.086Z,18.32
2019-04-23T07:31:24.368Z,16.25
2019-04-23T07:33:52.849Z,14.95
2019-04-23T07:36:17.860Z,19.50
2019-04-23T07:38:56.393Z,17.45
2019-04-23T07:41:30.541Z,17.45
2019-04-23T07:44:08.542Z,20.00
2019-04-23T07:49:04.602Z,15.75
2019-04-23T07:51:38.941Z,15.93
2019-04-23T07:54:07.555Z,14.78
2019-04-23T07:56:35.660Z,15.72
2019-04-23T07:59:05.756Z,15.60
2019-04-23T08:01:35.725Z,14.77
2019-04-23T08:04:04.702Z,16.62
2019-04-23T08:06:40.997Z,14.45
2019-04-23T08:09:09.194Z,15.23
2019-04-23T08:14:06.501Z,13.78
2019-04-23T08:16:38.296Z,14.43
2019-04-23T08:21:40.355Z,14.68
2019-04-23T08:24:10.233Z,15.05
2019-04-23T08:26:55.107Z,15.65
2019-04-23T08:29:19.886Z,14.43
2019-04-23T08:32:11.786Z,17.10
2019-04-23T08:34:38.844Z,15.32
2019-04-23T08:37:03.196Z,14.88
2019-04-23T08:39:26.413Z,13.70
2019-04-23T08:44:56.423Z,15.03
2019-04-23T08:50:34.079Z,14.95
2019-04-23T08:54:48.343Z,15.20
2019-04-23T08:57:08.762Z,20.48
2019-04-23T08:59:47.580Z,23.38
2019-04-23T09:02:22.072Z,14.33
2019-04-23T09:04:49.538Z,17.17
2019-04-23T09:09:47.536Z,13.60
2019-04-23T09:12:12.321Z,15.55
2019-04-23T09:14:42.264Z,15.60
2019-04-23T09:17:13.293Z,16.97
2019-04-23T09:20:03.575Z,14.78
2019-04-23T09:22:14.634Z,15.20
2019-04-23T09:24:44.888Z,19.20
2019-04-23T09:27:18.151Z,13.83
2019-04-23T09:29:45.790Z,14.23
2019-04-23T09:35:02.517Z,17.10
2019-04-23T09:42:54.491Z,13.30
2019-04-23T09:45:41.175Z,12.07
2019-04-23T09:48:13.858Z,25.92
2019-04-23T09:50:46.848Z,19.17
2019-04-23T09:53:17.670Z,21.02
2019-04-23T09:58:22.386Z,11.10
2019-04-23T10:00:59.108Z,12.35
2019-04-23T10:03:10.943Z,18.77
2019-04-23T10:05:33.586Z,15.60
2019-04-23T10:08:02.892Z,14.80
2019-04-23T10:10:23.317Z,13.07
2019-04-23T10:12:53.643Z,13.22
2019-04-23T10:15:26.663Z,13.68
2019-04-23T10:17:54.114Z,13.45
2019-04-23T10:20:24.610Z,13.62
2019-04-23T10:22:54.569Z,14.20
2019-04-23T10:25:23.679Z,12.33
2019-04-23T10:27:57.006Z,14.30
2019-04-23T10:30:23.757Z,15.00
2019-04-23T10:32:53.700Z,15.25
2019-04-23T10:35:36.570Z,13.58
2019-04-23T10:38:01.500Z,13.83
2019-04-23T10:40:30.210Z,17.65
2019-04-23T10:42:54.448Z,17.00
2019-04-23T10:45:40.855Z,12.58
2019-04-23T10:49:18.366Z,12.45
2019-04-23T10:58:31.511Z,14.43
2019-04-23T11:01:00.990Z,15.00
2019-04-23T11:08:30.790Z,16.17
2019-04-23T11:11:07.743Z,13.78
2019-04-23T11:18:45.231Z,12.65
2019-04-23T11:21:13.512Z,14.87
2019-04-23T11:23:37.593Z,12.63
2019-04-23T11:26:26.397Z,15.35
2019-04-23T11:31:27.524Z,12.70
2019-04-23T11:33:46.125Z,11.85
2019-04-23T11:36:43.620Z,12.50
2019-04-23T11:38:54.572Z,11.25
2019-04-23T11:41:21.482Z,13.53
2019-04-23T11:43:50.887Z,13.88
2019-04-23T11:46:32.537Z,13.67
2019-04-23T11:53:50.966Z,13.13
2019-04-23T11:56:51.493Z,12.18
2019-04-23T11:58:45.784Z,13.03
2019-04-23T12:04:14.070Z,14.75
2019-04-23T12:09:35.295Z,12.23
2019-04-23T12:14:37.160Z,11.68
2019-04-23T12:22:15.159Z,12.63
2019-04-23T12:29:37.371Z,15.15
2019-04-23T12:35:01.565Z,12.07
2019-04-23T12:37:41.106Z,12.68
2019-04-23T12:45:18.190Z,12.43
2019-04-23T12:52:41.444Z,17.05
2019-04-23T12:57:40.982Z,16.23
2019-04-23T13:02:46.472Z,13.53
2019-04-23T13:05:10.298Z,48.58
2019-04-23T13:10:15.880Z,15.93
2019-04-23T13:20:19.396Z,17.23
2019-04-23T13:22:49.196Z,21.02
2019-04-23T13:25:17.882Z,16.50
2019-04-23T13:28:08.406Z,16.30
2019-04-23T13:30:31.575Z,12.15
2019-04-23T13:32:59.008Z,20.23
2019-04-23T13:35:48.709Z,18.12
2019-04-23T13:40:36.493Z,13.45
2019-04-23T13:48:00.665Z,15.60
2019-04-23T13:50:37.385Z,14.03
2019-04-23T13:53:18.095Z,14.47
2019-04-23T13:55:27.376Z,15.77
2019-04-23T13:58:15.236Z,15.30
2019-04-23T14:02:55.523Z,15.83
2019-04-23T14:08:00.865Z,16.85
2019-04-23T14:10:36.607Z,19.87
2019-04-23T14:13:22.177Z,18.42
2019-04-23T14:15:42.874Z,17.17
2019-04-23T14:18:27.401Z,9.50
2019-04-23T14:20:33.460Z,12.00
2019-04-23T14:25:40.220Z,14.48
2019-04-23T14:30:46.374Z,13.95
2019-04-23T14:35:40.303Z,14.50
2019-04-23T14:40:43.127Z,13.93
2019-04-23T14:46:27.254Z,13.13
2019-04-23T14:48:28.193Z,9.83
2019-04-23T14:51:07.059Z,13.75
2019-04-23T14:53:43.882Z,12.60
2019-04-23T14:56:04.881Z,9.93
2019-04-23T14:58:56.912Z,13.15
2019-04-23T15:01:16.286Z,14.68
2019-04-23T15:03:40.305Z,13.93
2019-04-23T15:08:39.779Z,15.50
2019-04-23T15:13:39.279Z,11.15
2019-04-23T15:16:26.665Z,15.85
2019-04-23T15:18:52.537Z,14.45
2019-04-23T15:24:00.184Z,36.07
2019-04-23T15:28:34.025Z,34.58
2019-04-23T15:31:33.220Z,40.50
2019-04-23T15:34:00.686Z,35.13
2019-04-23T15:39:05.770Z,16.13
2019-04-23T15:44:06.029Z,12.25
2019-04-23T15:49:13.162Z,17.80
2019-04-23T15:54:02.810Z,12.75
2019-04-23T15:56:36.606Z,13.38
2019-04-23T16:01:34.554Z,7.05
2019-04-23T16:03:31.968Z,7.25
2019-04-23T16:06:02.517Z,12.60
2019-04-23T16:16:39.304Z,6.60
2019-04-23T16:19:20.771Z,9.73
2019-04-23T16:26:47.496Z,15.48
2019-04-23T16:34:25.713Z,5.67
2019-04-23T16:36:55.774Z,10.82
2019-04-23T16:39:15.095Z,9.05
2019-04-23T16:47:00.419Z,5.40
2019-04-23T16:51:47.824Z,13.20
2019-04-23T16:54:25.798Z,8.95
2019-04-23T16:59:27.103Z,18.12
2019-04-23T17:02:06.613Z,43.20
2019-04-23T17:04:24.786Z,30.35
2019-04-23T17:09:31.526Z,59.33
2019-04-23T17:12:01.539Z,117.87
2019-04-23T17:14:41.438Z,114.03
2019-04-23T17:17:04.810Z,48.95
2019-04-23T17:19:48.425Z,24.32
2019-04-23T17:22:10.596Z,28.67
2019-04-23T17:24:51.762Z,31.60
2019-04-23T17:27:24.063Z,56.88
2019-04-23T17:32:25.042Z,37.03
2019-04-23T17:35:09.614Z,28.25
2019-04-23T17:37:35.139Z,12.25
2019-04-23T17:40:12.229Z,16.40
2019-04-23T17:42:50.895Z,11.03
2019-04-23T17:45:30.880Z,10.87
2019-04-23T17:47:58.976Z,5.95
2019-04-23T17:53:09.052Z,6.13
2019-04-23T17:55:29.558Z,8.28
2019-04-23T17:58:15.581Z,6.50
2019-04-23T18:00:51.110Z,6.23
2019-04-23T18:03:30.362Z,7.50
2019-04-23T18:05:54.548Z,8.80
2019-04-23T18:08:22.915Z,6.15
2019-04-23T18:10:51.670Z,8.13
2019-04-23T18:13:21.074Z,7.72
2019-04-23T18:15:57.201Z,9.50
2019-04-23T18:18:16.621Z,10.57
2019-04-23T18:21:14.228Z,10.30
2019-04-23T18:23:32.426Z,12.97
2019-04-23T18:26:13.901Z,8.03
2019-04-23T18:28:46.049Z,13.15
2019-04-23T18:31:12.920Z,18.90
2019-04-23T18:34:08.772Z,15.57
2019-04-23T18:36:23.944Z,11.55
2019-04-23T18:39:06.225Z,9.83
2019-04-23T18:41:35.042Z,19.13
2019-04-23T18:46:36.631Z,17.02
2019-04-23T18:48:57.901Z,24.98
2019-04-23T18:51:36.747Z,22.13
2019-04-23T18:54:01.114Z,18.03
2019-04-23T18:56:56.127Z,18.23
2019-04-23T18:59:30.466Z,34.43
2019-04-23T19:01:37.834Z,25.80
2019-04-23T19:04:44.934Z,22.25
2019-04-23T19:06:37.652Z,43.83
2019-04-23T19:09:23.457Z,43.10
2019-04-23T19:12:16.220Z,47.63
2019-04-23T19:17:29.106Z,99.45
2019-04-23T19:19:33.384Z,90.33
2019-04-23T19:22:14.495Z,58.30
2019-04-23T19:24:31.677Z,42.20
2019-04-23T19:27:11.983Z,44.50
2019-04-23T19:29:40.120Z,82.92
2019-04-23T19:32:00.608Z,35.55
2019-04-23T19:34:39.005Z,20.60
2019-04-23T19:37:05.729Z,12.55
2019-04-23T19:44:41.187Z,13.53
2019-04-23T19:47:25.628Z,9.30
2019-04-23T19:49:38.863Z,11.78
2019-04-23T20:04:43.960Z,92.00
2019-04-23T20:07:32.156Z,44.62
2019-04-23T20:09:52.009Z,24.87
2019-04-23T20:12:14.118Z,35.28
2019-04-23T20:19:54.597Z,19.20
2019-04-23T20:22:17.108Z,24.72
2019-04-23T20:27:17.884Z,40.67
2019-04-23T20:30:23.467Z,20.03
2019-04-23T20:35:11.472Z,10.85
2019-04-23T20:38:08.594Z,11.42
2019-04-23T20:40:15.481Z,11.78
2019-04-23T20:42:48.155Z,18.25
2019-04-23T20:45:17.000Z,9.98
2019-04-23T20:47:45.390Z,8.23
2019-04-23T20:50:03.386Z,8.70
2019-04-23T20:52:41.664Z,9.97
2019-04-23T20:55:20.184Z,9.70
2019-04-23T21:00:21.524Z,9.33
2019-04-23T21:10:33.968Z,8.83
2019-04-23T21:20:36.977Z,8.63
2019-04-23T21:23:09.450Z,10.43
2019-04-23T21:25:41.012Z,10.15
2019-04-23T21:31:00.783Z,10.17
2019-04-23T21:33:17.826Z,8.70
2019-04-23T21:38:55.858Z,9.98
2019-04-23T21:41:24.960Z,13.00
2019-04-23T21:44:02.543Z,11.30
2019-04-23T21:46:15.894Z,10.95
2019-04-23T21:48:53.086Z,11.47
2019-04-23T21:53:40.554Z,12.05
2019-04-23T21:56:09.335Z,10.20
2019-04-23T21:58:59.828Z,10.45
2019-04-23T22:01:21.263Z,9.98
2019-04-23T22:04:06.491Z,10.38
2019-04-23T22:06:22.248Z,10.53
2019-04-23T22:08:52.869Z,9.98
2019-04-23T22:19:04.303Z,12.03
2019-04-23T22:21:20.754Z,10.50
2019-04-23T22:23:58.167Z,10.68
2019-04-23T22:26:23.554Z,10.70
2019-04-23T22:29:03.710Z,13.58
2019-04-23T22:31:18.732Z,14.70
2019-04-23T22:38:52.687Z,12.65
2019-04-23T22:41:18.180Z,12.37
2019-04-23T22:44:04.008Z,13.97
2019-04-23T22:46:22.921Z,13.47
2019-04-23T22:49:09.192Z,15.40
2019-04-23T22:51:35.946Z,15.43
2019-04-23T22:53:58.583Z,14.83
2019-04-23T22:56:27.426Z,15.63
2019-04-23T22:59:16.935Z,14.20
2019-04-23T23:04:07.759Z,14.77
2019-04-23T23:11:43.003Z,16.82
2019-04-23T23:14:22.434Z,18.20
2019-04-23T23:16:39.204Z,16.17
2019-04-23T23:19:14.188Z,13.45
2019-04-23T23:21:56.661Z,16.23
2019-04-23T23:24:10.060Z,15.10
2019-04-23T23:26:40.701Z,16.10
2019-04-23T23:29:06.302Z,15.58
2019-04-23T23:31:59.963Z,16.47
2019-04-23T23:34:36.374Z,15.90
2019-04-23T23:39:37.096Z,16.47
2019-04-23T23:45:02.102Z,17.15
2019-04-23T23:47:14.886Z,16.15
2019-04-23T23:49:56.891Z,17.05
2019-04-23T23:52:13.195Z,17.67
2019-04-23T23:54:44.511Z,19.13
